Дата Пункты Температура Давл., мм. Влажн., % Ветер Погодные явления
Воздуха Воды Направл. Скорость
02.07.19 06:00 Одесса 29.0 20.0 754 58 Пд-З 3 18 ГОДИН
02.07.19 03:00 Одесса 30.0 20.0 755 57 Пд-З 4 15 ГОДИН
02.07.19 12:00 Одесса 30.0 20.0 756 58 Пд-З 1 12 ГОДИН
01.07.19 06:00 Одесса 29.0 21.0 757 42 Пд-З 2 18 ГОДИН
01.07.19 03:00 Одесса 28.0 21.0 758 51 Пд 4 15 ГОДИН
01.07.19 12:00 Одесса 27.0 21.0 759 51 Пд 3 12 ГОДИН
01.07.19 09:00 Одесса 27.0 21.0 759 44 Пн 1 09 ГОДИН
01.07.19 06:00 Одесса 20.0 21.0 758 64 З 2 06 ГОДИН
01.07.19 03:00 Одесса 21.0 21.0 758 58 З 2 03 ГОДИНИ
30.06.19 09:00 Одесса 25.0 22.0 759 40 Пн 0 21 ГОДИНУ
30.06.19 06:00 Одесса 27.0 22.0 758 32 Пн-З 1 18 ГОДИН
30.06.19 03:00 Одесса 28.0 22.0 759 27 Пн-З 2 15 ГОДИН
30.06.19 12:00 Одесса 26.0 21.0 759 28 Пн 3 12 ГОДИН
30.06.19 09:00 Одесса 22.0 21.0 759 42 Пн-З 1 09 ГОДИН
30.06.19 06:00 Одесса 17.0 22.0 758 57 Пн-З 2 06 ГОДИН
30.06.19 03:00 Одесса 18.0 22.0 757 55 Пн-З 1 03 ГОДИНИ
29.06.19 09:00 Одесса 22.0 22.0 757 35 Пн-З 3 21 ГОДИНУ
29.06.19 06:00 Одесса 24.0 23.0 756 27 Пн-З 2 18 ГОДИН
29.06.19 03:00 Одесса 26.0 23.0 756 23 Пн-З 4 15 ГОДИН
29.06.19 12:00 Одесса 25.0 23.0 757 28 Пн-З 3 12 ГОДИН
Количество строк
1 2 3 4 5 6 7 8 9 10
Page 7 of 511